createdAt,value
2022-09-16T00:00:30.644Z,91.32
2022-09-16T00:02:58.333Z,91.41
2022-09-16T00:05:25.408Z,91.73
2022-09-16T00:07:52.271Z,92.42
2022-09-16T00:10:19.048Z,92.14
2022-09-16T00:12:45.698Z,92.92
2022-09-16T00:15:12.832Z,92.54
2022-09-16T00:17:39.761Z,92.61
2022-09-16T00:20:07.568Z,92.77
2022-09-16T00:22:35.080Z,92.54
2022-09-16T00:25:01.633Z,94.00
2022-09-16T00:27:28.207Z,94.32
2022-09-16T00:29:54.774Z,93.83
2022-09-16T00:32:21.369Z,94.31
2022-09-16T00:34:48.025Z,94.35
2022-09-16T00:37:14.547Z,94.98
2022-09-16T00:39:41.091Z,95.03
2022-09-16T00:42:07.745Z,95.36
2022-09-16T00:44:58.869Z,95.83
2022-09-16T00:47:31.979Z,95.54
2022-09-16T00:50:05.923Z,95.24
2022-09-16T00:52:32.933Z,95.86
2022-09-16T00:55:04.007Z,95.93
2022-09-16T00:57:30.672Z,96.25
2022-09-16T00:59:57.888Z,96.20
2022-09-16T01:02:25.153Z,96.55
2022-09-16T01:04:58.971Z,95.85
2022-09-16T01:07:39.414Z,96.16
2022-09-16T01:10:06.683Z,96.14
2022-09-16T01:12:35.074Z,96.41
2022-09-16T01:15:04.478Z,96.74
2022-09-16T01:17:33.998Z,96.30
2022-09-16T01:20:34.610Z,96.14
2022-09-16T01:23:34.961Z,96.50
2022-09-16T01:26:26.599Z,96.14
2022-09-16T01:29:20.884Z,96.70
2022-09-16T01:32:11.703Z,96.80
2022-09-16T01:35:02.798Z,97.25
2022-09-16T01:37:47.598Z,96.98
2022-09-16T01:40:24.126Z,96.77
2022-09-16T01:43:04.095Z,97.03
2022-09-16T01:45:39.085Z,96.23
2022-09-16T01:48:56.590Z,95.91
2022-09-16T01:51:28.096Z,96.71
2022-09-16T01:54:24.802Z,96.21
2022-09-16T01:57:11.018Z,96.35
2022-09-16T02:00:02.144Z,96.22
2022-09-16T02:02:34.788Z,96.29
2022-09-16T02:05:05.888Z,96.57
2022-09-16T02:07:36.721Z,96.10
2022-09-16T02:10:13.704Z,96.49
2022-09-16T02:12:44.700Z,96.94
2022-09-16T02:15:18.893Z,97.05
2022-09-16T02:17:51.872Z,96.07
2022-09-16T02:20:24.679Z,96.09
2022-09-16T02:23:07.175Z,96.60
2022-09-16T02:25:38.429Z,96.46
2022-09-16T02:28:13.165Z,96.86
2022-09-16T02:30:48.169Z,96.16
2022-09-16T02:33:17.492Z,96.58
2022-09-16T02:35:48.491Z,96.61
2022-09-16T02:38:23.245Z,96.18
2022-09-16T02:40:57.535Z,95.48
2022-09-16T02:43:25.721Z,94.64
2022-09-16T02:45:56.967Z,95.60
2022-09-16T02:48:42.021Z,94.84
2022-09-16T02:51:38.748Z,95.15
2022-09-16T02:54:11.882Z,94.68
2022-09-16T02:56:42.043Z,95.66
2022-09-16T02:59:11.573Z,94.40
2022-09-16T03:01:44.432Z,94.68
2022-09-16T03:04:14.226Z,95.55
2022-09-16T03:06:41.219Z,95.22
2022-09-16T03:09:11.066Z,95.80
2022-09-16T03:11:53.466Z,96.74
2022-09-16T03:14:38.562Z,96.24
2022-09-16T03:17:26.051Z,96.13
2022-09-16T03:20:20.297Z,95.95
2022-09-16T03:22:58.828Z,96.70
2022-09-16T03:25:40.484Z,97.38
2022-09-16T03:28:28.705Z,98.75
2022-09-16T03:31:05.179Z,98.28
2022-09-16T03:33:49.868Z,98.63
2022-09-16T03:36:21.079Z,98.94
2022-09-16T03:38:48.677Z,100.00
2022-09-16T03:41:17.207Z,100.00
2022-09-16T03:44:02.936Z,100.00
2022-09-16T03:46:30.738Z,100.00
2022-09-16T03:48:58.095Z,100.00
2022-09-16T03:51:26.128Z,100.00
2022-09-16T03:53:54.223Z,100.00
2022-09-16T03:56:22.278Z,100.00
2022-09-16T03:58:48.905Z,100.00
2022-09-16T04:01:15.543Z,100.00
2022-09-16T04:03:42.599Z,100.00
2022-09-16T04:06:09.639Z,100.00
2022-09-16T04:08:37.282Z,100.00
2022-09-16T04:11:06.095Z,100.00
2022-09-16T04:13:34.620Z,100.00
2022-09-16T04:16:03.555Z,100.00
2022-09-16T04:18:34.740Z,100.00
2022-09-16T04:21:03.410Z,100.00
2022-09-16T04:23:31.226Z,100.00
2022-09-16T04:25:59.760Z,100.00
2022-09-16T04:28:27.370Z,100.00
2022-09-16T04:30:54.141Z,100.00
2022-09-16T04:33:20.849Z,100.00
2022-09-16T04:35:47.912Z,100.00
2022-09-16T04:38:14.504Z,100.00
2022-09-16T04:40:41.033Z,100.00
2022-09-16T04:43:07.578Z,100.00
2022-09-16T04:45:34.077Z,100.00
2022-09-16T04:48:00.672Z,100.00
2022-09-16T04:50:27.778Z,100.00
2022-09-16T04:52:54.376Z,100.00
2022-09-16T04:55:24.164Z,100.00
2022-09-16T04:57:51.099Z,100.00
2022-09-16T05:00:17.668Z,100.00
2022-09-16T05:02:45.919Z,100.00
2022-09-16T05:05:12.690Z,100.00
2022-09-16T05:07:39.370Z,100.00
2022-09-16T05:10:06.445Z,100.00
2022-09-16T05:12:32.935Z,100.00
2022-09-16T05:14:59.452Z,100.00
2022-09-16T05:17:49.328Z,100.00
2022-09-16T05:20:14.191Z,100.00
2022-09-16T05:22:40.759Z,100.00
2022-09-16T05:25:07.637Z,100.00
2022-09-16T05:27:34.328Z,100.00
2022-09-16T05:30:00.957Z,100.00
2022-09-16T05:32:27.610Z,100.00
2022-09-16T05:34:54.847Z,100.00
2022-09-16T05:37:21.439Z,100.00
2022-09-16T05:39:48.140Z,100.00
2022-09-16T05:42:14.846Z,100.00
2022-09-16T05:44:41.469Z,100.00
2022-09-16T05:47:08.023Z,100.00
2022-09-16T05:49:34.630Z,99.08
2022-09-16T05:52:01.527Z,98.75
2022-09-16T05:54:28.077Z,98.25
2022-09-16T05:56:54.659Z,98.59
2022-09-16T05:59:21.491Z,97.81
2022-09-16T06:01:48.218Z,98.14
2022-09-16T06:04:15.870Z,97.56
2022-09-16T06:06:45.172Z,96.47
2022-09-16T06:09:21.171Z,96.81
2022-09-16T06:11:50.149Z,96.02
2022-09-16T06:14:18.456Z,93.15
2022-09-16T06:16:45.139Z,91.35
2022-09-16T06:19:14.642Z,88.95
2022-09-16T06:21:43.695Z,91.22
2022-09-16T06:24:11.241Z,88.35
2022-09-16T06:26:40.283Z,87.42
2022-09-16T06:29:07.816Z,85.65
2022-09-16T06:31:36.184Z,90.32
2022-09-16T06:34:02.862Z,91.27
2022-09-16T06:36:32.478Z,91.51
2022-09-16T06:38:59.224Z,91.65
2022-09-16T06:41:26.201Z,92.00
2022-09-16T06:43:53.630Z,91.56
2022-09-16T06:46:22.947Z,91.22
2022-09-16T06:49:06.108Z,92.15
2022-09-16T06:51:34.384Z,91.62
2022-09-16T06:54:04.187Z,91.28
2022-09-16T06:56:31.830Z,90.87
2022-09-16T06:58:58.632Z,90.10
2022-09-16T07:01:28.313Z,90.51
2022-09-16T07:03:56.722Z,88.98
2022-09-16T07:06:38.134Z,90.49
2022-09-16T07:09:11.508Z,89.62
2022-09-16T07:11:38.076Z,89.13
2022-09-16T07:14:05.111Z,89.58
2022-09-16T07:16:31.815Z,89.02
2022-09-16T07:19:01.070Z,88.25
2022-09-16T07:21:30.542Z,86.89
2022-09-16T07:24:02.086Z,86.79
2022-09-16T07:26:34.771Z,87.70
2022-09-16T07:29:03.697Z,86.71
2022-09-16T07:31:33.409Z,84.24
2022-09-16T07:34:04.909Z,84.78
2022-09-16T07:36:40.891Z,85.19
2022-09-16T07:39:08.430Z,85.95
2022-09-16T07:41:40.480Z,84.10
2022-09-16T07:44:09.948Z,84.63
2022-09-16T07:46:37.169Z,82.63
2022-09-16T07:49:06.843Z,83.20
2022-09-16T07:51:34.066Z,82.83
2022-09-16T07:54:04.714Z,82.55
2022-09-16T07:56:34.454Z,80.82
2022-09-16T07:59:02.576Z,81.51
2022-09-16T08:01:31.237Z,81.73
2022-09-16T08:03:58.609Z,82.55
2022-09-16T08:06:27.970Z,81.94
2022-09-16T08:09:02.467Z,83.15
2022-09-16T08:11:37.663Z,82.19
2022-09-16T08:14:04.232Z,81.53
2022-09-16T08:16:30.819Z,81.65
2022-09-16T08:18:58.999Z,81.10
2022-09-16T08:21:28.594Z,82.14
2022-09-16T08:23:56.432Z,81.00
2022-09-16T08:26:24.254Z,82.55
2022-09-16T08:29:08.017Z,80.31
2022-09-16T08:31:36.369Z,79.26
2022-09-16T08:34:03.211Z,80.82
2022-09-16T08:36:29.823Z,80.22
2022-09-16T08:38:56.909Z,81.78
2022-09-16T08:41:41.548Z,79.19
2022-09-16T08:44:50.751Z,79.86
2022-09-16T08:47:49.421Z,80.41
2022-09-16T08:50:29.071Z,80.81
2022-09-16T08:52:59.859Z,82.00
2022-09-16T08:55:32.834Z,78.08
2022-09-16T08:58:19.574Z,76.46
2022-09-16T09:00:53.813Z,72.64
2022-09-16T09:03:41.802Z,72.40
2022-09-16T09:06:48.099Z,74.47
2022-09-16T09:09:20.685Z,73.57
2022-09-16T09:11:57.808Z,74.44
2022-09-16T09:14:49.111Z,71.60
2022-09-16T09:17:37.253Z,71.48
2022-09-16T09:20:31.393Z,70.01
2022-09-16T09:23:24.525Z,70.09
2022-09-16T09:26:22.160Z,70.84
2022-09-16T09:28:55.350Z,72.93
2022-09-16T09:31:30.774Z,71.72
2022-09-16T09:34:00.528Z,73.28
2022-09-16T09:36:42.432Z,71.61
2022-09-16T09:39:29.121Z,73.37
2022-09-16T09:42:07.371Z,72.72
2022-09-16T09:44:58.504Z,74.52
2022-09-16T09:47:43.106Z,74.55
2022-09-16T09:50:23.787Z,76.31
2022-09-16T09:53:01.879Z,76.34
2022-09-16T09:55:33.577Z,76.48
2022-09-16T09:58:00.827Z,72.01
2022-09-16T10:00:28.121Z,72.37
2022-09-16T10:03:04.745Z,70.89
2022-09-16T10:05:31.518Z,70.27
2022-09-16T10:08:21.540Z,73.69
2022-09-16T10:10:50.824Z,72.41
2022-09-16T10:13:17.955Z,73.53
2022-09-16T10:15:44.743Z,75.38
2022-09-16T10:18:23.982Z,75.65
2022-09-16T10:21:20.183Z,73.51
2022-09-16T10:23:55.709Z,73.25
2022-09-16T10:26:25.131Z,73.34
2022-09-16T10:28:58.740Z,70.25
2022-09-16T10:31:33.521Z,67.11
2022-09-16T10:34:02.527Z,69.11
2022-09-16T10:36:35.547Z,72.82
2022-09-16T10:39:05.436Z,76.19
2022-09-16T10:41:45.649Z,79.52
2022-09-16T10:44:21.998Z,82.98
2022-09-16T10:47:22.105Z,80.31
2022-09-16T10:49:56.451Z,78.79
2022-09-16T10:52:25.941Z,77.60
2022-09-16T10:54:53.821Z,77.75
2022-09-16T10:57:33.115Z,80.08
2022-09-16T11:00:14.380Z,82.10
2022-09-16T11:02:57.160Z,80.31
2022-09-16T11:05:45.838Z,81.97
2022-09-16T11:08:30.626Z,79.51
2022-09-16T11:11:11.821Z,77.50
2022-09-16T11:13:43.298Z,77.08
2022-09-16T11:16:35.842Z,75.87
2022-09-16T11:19:22.603Z,73.86
2022-09-16T11:22:34.408Z,74.38
2022-09-16T11:25:24.759Z,76.27
2022-09-16T11:28:09.485Z,74.50
2022-09-16T11:30:51.247Z,72.22
2022-09-16T11:33:19.729Z,71.30
2022-09-16T11:36:29.902Z,70.46
2022-09-16T11:39:26.100Z,67.63
2022-09-16T11:42:10.645Z,68.38
2022-09-16T11:44:57.719Z,70.79
2022-09-16T11:47:41.221Z,70.63
2022-09-16T11:50:49.338Z,71.30
2022-09-16T11:53:30.991Z,70.74
2022-09-16T11:56:05.910Z,67.52
2022-09-16T11:58:50.697Z,67.43
2022-09-16T12:01:31.837Z,68.42
2022-09-16T12:04:26.679Z,67.81
2022-09-16T12:07:28.079Z,67.47
2022-09-16T12:09:57.103Z,65.99
2022-09-16T12:12:29.806Z,65.37
2022-09-16T12:15:05.881Z,64.34
2022-09-16T12:17:36.980Z,62.80
2022-09-16T12:20:13.716Z,61.58
2022-09-16T12:22:45.244Z,61.17
2022-09-16T12:25:24.028Z,61.31
2022-09-16T12:28:27.606Z,63.51
2022-09-16T12:31:07.975Z,64.32
2022-09-16T12:33:43.930Z,64.92
2022-09-16T12:36:19.084Z,66.41
2022-09-16T12:38:48.216Z,68.48
2022-09-16T12:41:30.161Z,71.28
2022-09-16T12:44:34.490Z,73.30
2022-09-16T12:47:13.321Z,74.46
2022-09-16T12:49:46.305Z,75.86
2022-09-16T12:52:19.885Z,73.84
2022-09-16T12:55:08.120Z,74.68
2022-09-16T12:58:04.650Z,72.34
2022-09-16T13:00:37.731Z,71.27
2022-09-16T13:03:16.028Z,70.67
2022-09-16T13:05:47.422Z,70.84
2022-09-16T13:08:29.275Z,67.51
2022-09-16T13:13:54.176Z,67.87
2022-09-16T13:16:36.001Z,67.08
2022-09-16T13:19:26.951Z,68.30
2022-09-16T13:22:13.988Z,67.92
2022-09-16T13:24:46.605Z,68.26
2022-09-16T13:27:31.441Z,66.37
2022-09-16T13:30:12.900Z,66.31
2022-09-16T13:32:45.148Z,66.54
2022-09-16T13:35:31.276Z,68.49
2022-09-16T13:37:58.781Z,66.37
2022-09-16T13:40:31.282Z,66.62
2022-09-16T13:43:42.365Z,67.42
2022-09-16T13:46:16.860Z,65.60
2022-09-16T13:48:50.579Z,66.73
2022-09-16T13:51:20.267Z,67.68
2022-09-16T13:53:49.957Z,70.02
2022-09-16T13:56:42.560Z,70.74
2022-09-16T13:59:20.881Z,71.74
2022-09-16T14:02:03.886Z,72.28
2022-09-16T14:05:18.314Z,72.07
2022-09-16T14:07:49.806Z,73.88
2022-09-16T14:10:53.834Z,76.19
2022-09-16T14:13:22.763Z,76.58
2022-09-16T14:15:56.438Z,78.89
2022-09-16T14:18:27.501Z,81.09
2022-09-16T14:21:00.978Z,82.89
2022-09-16T14:23:29.162Z,83.20
2022-09-16T14:25:55.857Z,83.00
2022-09-16T14:28:28.913Z,82.69
2022-09-16T14:30:58.589Z,83.22
2022-09-16T14:33:36.119Z,82.48
2022-09-16T14:36:12.426Z,81.88
2022-09-16T14:38:54.387Z,78.96
2022-09-16T14:41:30.919Z,79.57
2022-09-16T14:44:07.436Z,78.68
2022-09-16T14:46:41.050Z,78.70
2022-09-16T14:49:11.780Z,78.56
2022-09-16T14:51:42.644Z,78.76
2022-09-16T14:54:20.145Z,77.39
2022-09-16T14:56:56.507Z,76.42
2022-09-16T14:59:27.806Z,77.15
2022-09-16T15:01:58.115Z,77.09
2022-09-16T15:04:32.999Z,78.49
2022-09-16T15:07:12.491Z,77.23
2022-09-16T15:09:47.096Z,75.99
2022-09-16T15:12:30.352Z,75.98
2022-09-16T15:14:57.872Z,74.09
2022-09-16T15:17:28.230Z,72.58
2022-09-16T15:19:59.290Z,71.94
2022-09-16T15:22:27.234Z,71.71
2022-09-16T15:24:58.418Z,70.66
2022-09-16T15:27:32.341Z,70.22
2022-09-16T15:30:01.313Z,70.43
2022-09-16T15:32:31.746Z,69.15
2022-09-16T15:35:25.167Z,69.34
2022-09-16T15:37:53.701Z,70.85
2022-09-16T15:40:29.619Z,69.16
2022-09-16T15:43:22.603Z,70.42
2022-09-16T15:46:22.030Z,71.72
2022-09-16T15:49:00.352Z,73.64
2022-09-16T15:51:34.865Z,75.14
2022-09-16T15:54:25.746Z,74.92
2022-09-16T15:57:02.594Z,75.00
2022-09-16T15:59:41.169Z,73.37
2022-09-16T16:02:33.031Z,73.51
2022-09-16T16:05:19.790Z,72.42
2022-09-16T16:07:49.482Z,72.34
2022-09-16T16:10:22.875Z,73.86
2022-09-16T16:12:51.322Z,72.98
2022-09-16T16:15:22.017Z,75.23
2022-09-16T16:17:49.542Z,73.12
2022-09-16T16:20:17.478Z,73.61
2022-09-16T16:22:45.698Z,74.80
2022-09-16T16:25:13.732Z,76.08
2022-09-16T16:27:40.542Z,77.37
2022-09-16T16:30:07.770Z,77.97
2022-09-16T16:32:35.125Z,78.93
2022-09-16T16:35:01.751Z,79.27
2022-09-16T16:37:45.571Z,79.27
2022-09-16T16:40:15.034Z,80.42
2022-09-16T16:42:43.705Z,79.80
2022-09-16T16:45:13.218Z,80.56
2022-09-16T16:47:40.226Z,80.42
2022-09-16T16:50:07.200Z,81.18
2022-09-16T16:52:33.725Z,80.26
2022-09-16T16:55:00.295Z,80.65
2022-09-16T16:57:26.961Z,78.96
2022-09-16T16:59:53.555Z,79.73
2022-09-16T17:02:20.198Z,78.54
2022-09-16T17:04:46.816Z,79.09
2022-09-16T17:07:28.875Z,77.87
2022-09-16T17:09:59.023Z,76.18
2022-09-16T17:12:26.611Z,75.70
2022-09-16T17:14:53.183Z,77.07
2022-09-16T17:17:19.821Z,77.02
2022-09-16T17:19:46.403Z,77.23
2022-09-16T17:22:12.961Z,78.27
2022-09-16T17:24:39.641Z,78.83
2022-09-16T17:27:06.223Z,77.69
2022-09-16T17:29:32.723Z,77.15
2022-09-16T17:32:02.464Z,77.67
2022-09-16T17:34:29.441Z,78.09
2022-09-16T17:36:57.525Z,77.25
2022-09-16T17:39:24.195Z,78.02
2022-09-16T17:41:51.264Z,77.32
2022-09-16T17:44:19.361Z,77.98
2022-09-16T17:46:47.009Z,78.49
2022-09-16T17:49:20.215Z,78.68
2022-09-16T17:51:46.902Z,79.03
2022-09-16T17:54:14.003Z,80.20
2022-09-16T17:56:42.642Z,80.09
2022-09-16T17:59:25.513Z,80.50
2022-09-16T18:01:52.123Z,82.31
2022-09-16T18:04:18.633Z,82.76
2022-09-16T18:06:46.722Z,82.37
2022-09-16T18:09:16.246Z,83.79
2022-09-16T18:11:43.153Z,83.37
2022-09-16T18:14:11.925Z,83.67
2022-09-16T18:16:39.155Z,84.69
2022-09-16T18:19:06.486Z,85.23
2022-09-16T18:21:33.563Z,84.59
2022-09-16T18:24:02.690Z,84.76
2022-09-16T18:26:30.285Z,86.21
2022-09-16T18:29:12.850Z,86.15
2022-09-16T18:31:41.797Z,86.34
2022-09-16T18:34:08.427Z,87.17
2022-09-16T18:36:37.007Z,88.60
2022-09-16T18:39:04.598Z,88.54
2022-09-16T18:41:35.444Z,88.42
2022-09-16T18:44:04.931Z,89.19
2022-09-16T18:46:33.692Z,89.33
2022-09-16T18:49:01.113Z,89.84
2022-09-16T18:51:33.104Z,89.34
2022-09-16T18:54:02.553Z,90.67
2022-09-16T18:56:34.195Z,89.60
2022-09-16T18:59:23.346Z,90.41
2022-09-16T19:01:55.410Z,91.62
2022-09-16T19:04:25.877Z,91.08
2022-09-16T19:06:54.794Z,91.72
2022-09-16T19:09:23.676Z,91.59
2022-09-16T19:11:52.814Z,91.68
2022-09-16T19:14:22.392Z,92.03
2022-09-16T19:16:49.242Z,92.59
2022-09-16T19:19:15.837Z,91.67
2022-09-16T19:21:43.538Z,92.73
2022-09-16T19:24:16.194Z,92.27
2022-09-16T19:26:45.970Z,93.08
2022-09-16T19:29:13.928Z,93.67
2022-09-16T19:31:42.105Z,93.10
2022-09-16T19:34:09.273Z,93.30
2022-09-16T19:36:36.642Z,93.48
2022-09-16T19:39:05.368Z,94.41
2022-09-16T19:41:35.914Z,94.17
2022-09-16T19:44:05.090Z,94.96
2022-09-16T19:46:35.361Z,95.31
2022-09-16T19:49:02.013Z,94.67
2022-09-16T19:51:29.126Z,94.42
2022-09-16T19:53:56.315Z,94.82
2022-09-16T19:56:25.954Z,94.79
2022-09-16T19:58:54.430Z,94.05
2022-09-16T20:01:24.074Z,94.27
2022-09-16T20:03:51.467Z,94.80
2022-09-16T20:06:21.429Z,94.12
2022-09-16T20:08:52.107Z,94.36
2022-09-16T20:11:21.454Z,94.01
2022-09-16T20:13:49.726Z,94.26
2022-09-16T20:16:18.467Z,94.96
2022-09-16T20:18:45.625Z,93.50
2022-09-16T20:21:15.920Z,93.59
2022-09-16T20:23:45.041Z,92.75
2022-09-16T20:26:14.956Z,92.79
2022-09-16T20:28:43.092Z,93.51
2022-09-16T20:31:11.868Z,93.68
2022-09-16T20:33:38.912Z,93.45
2022-09-16T20:36:07.822Z,92.82
2022-09-16T20:38:34.918Z,91.99
2022-09-16T20:41:10.032Z,91.75
2022-09-16T20:43:37.263Z,93.03
2022-09-16T20:46:09.325Z,91.32
2022-09-16T20:48:36.219Z,92.00
2022-09-16T20:51:05.202Z,90.99
2022-09-16T20:53:31.968Z,91.71
2022-09-16T20:56:03.510Z,91.47
2022-09-16T20:58:30.399Z,90.51
2022-09-16T21:01:05.535Z,90.72
2022-09-16T21:03:32.675Z,89.93
2022-09-16T21:06:14.607Z,90.09
2022-09-16T21:08:42.489Z,90.02
2022-09-16T21:11:14.846Z,89.90
2022-09-16T21:13:43.788Z,90.22
2022-09-16T21:16:13.292Z,89.70
2022-09-16T21:18:41.697Z,89.63
2022-09-16T21:21:11.151Z,90.17
2022-09-16T21:23:38.318Z,90.81
2022-09-16T21:26:16.674Z,91.58
2022-09-16T21:28:44.535Z,91.32
2022-09-16T21:31:14.431Z,91.89
2022-09-16T21:33:44.019Z,91.97
2022-09-16T21:36:13.209Z,92.17
2022-09-16T21:38:41.235Z,92.60
2022-09-16T21:41:12.392Z,93.33
2022-09-16T21:43:51.149Z,93.33
2022-09-16T21:46:20.457Z,93.43
2022-09-16T21:48:48.367Z,94.00
2022-09-16T21:51:17.167Z,94.16
2022-09-16T21:53:44.991Z,94.75
2022-09-16T21:56:14.547Z,95.05
2022-09-16T21:58:41.435Z,95.59
2022-09-16T22:01:08.125Z,95.15
2022-09-16T22:03:36.057Z,95.17
2022-09-16T22:06:03.195Z,95.90
2022-09-16T22:08:30.082Z,95.13
2022-09-16T22:11:01.475Z,96.51
2022-09-16T22:13:30.018Z,96.00
2022-09-16T22:15:56.925Z,95.57
2022-09-16T22:18:23.726Z,96.62
2022-09-16T22:20:51.560Z,96.19
2022-09-16T22:23:18.330Z,95.28
2022-09-16T22:25:45.319Z,96.35
2022-09-16T22:28:12.411Z,95.58
2022-09-16T22:30:39.431Z,95.48
2022-09-16T22:33:05.982Z,95.67
2022-09-16T22:35:35.126Z,96.67
2022-09-16T22:38:03.088Z,96.59
2022-09-16T22:40:31.068Z,95.48
2022-09-16T22:42:58.318Z,96.17
2022-09-16T22:45:25.230Z,96.49
2022-09-16T22:47:51.779Z,96.18
2022-09-16T22:50:18.320Z,95.85
2022-09-16T22:52:44.868Z,95.71
2022-09-16T22:55:11.392Z,96.55
2022-09-16T22:57:37.900Z,96.26
2022-09-16T23:00:05.286Z,96.02
2022-09-16T23:02:31.822Z,96.33
2022-09-16T23:04:58.403Z,95.49
2022-09-16T23:07:24.894Z,95.85
2022-09-16T23:09:51.457Z,96.15
2022-09-16T23:12:17.987Z,96.73
2022-09-16T23:14:44.754Z,97.42
2022-09-16T23:17:11.345Z,97.18
2022-09-16T23:19:37.890Z,97.43
2022-09-16T23:22:04.658Z,97.31
2022-09-16T23:24:31.284Z,97.36
2022-09-16T23:26:57.769Z,97.82
2022-09-16T23:29:24.310Z,97.29
2022-09-16T23:31:50.850Z,98.19
2022-09-16T23:34:21.738Z,97.82
2022-09-16T23:36:49.639Z,97.98
2022-09-16T23:39:17.315Z,98.85
2022-09-16T23:41:45.179Z,98.36
2022-09-16T23:44:13.672Z,98.21
2022-09-16T23:46:40.384Z,98.34
2022-09-16T23:49:07.092Z,97.83
2022-09-16T23:51:33.665Z,97.86
2022-09-16T23:54:00.483Z,98.16
2022-09-16T23:56:27.606Z,98.64
2022-09-16T23:58:54.580Z,98.66
